Flight OLY940

  • Submitted By: Stavros Sarikas
  • Departure Airport: Eleftherios Venizelos International Airport (LGAV)
  • Arrival Airport: Dimokritos Airport (LGAL)
  • Aircraft: A320-200 (SX-OAT)
  • Flight Time: 00.57
  • Date Submitted: 15/08/2017
  • Route: NEVRA UG33 LMO
  • Status: Accepted
Flight Details
Gross Revenue:
(116 load / € 55.00 per unit
€ 6, 380.00
Fuel Cost:
(-618 fuel used @ 0.19 / unit)
(€ -117.42)

Additional Log Information:

View Log

Aircraft Used in flight is Airbus A320 British Airways G-EUUU
16:16 Boarding
16:16 Beacon Lights ON at 320 Feet
16:16 Brakes are On
16:16 In Air Refuel Suspected
16:16 Navigation Lights ON at 320 Feet
16:21 Engine 2 Started
16:22 Engine 1 Started
16:23 Brakes are Released
16:23 Pushing back
16:23 Flaps 3 Selected at 320ft and 0kts
16:24 Taxi Lights ON at 320 Feet
16:25 Landing Lights ON at 320 AGL
16:25 Strobe Lights ON at 320 Feet
16:27 You Took off @ 141 Knots and Flaps at Position 3 With a heading of 37 Degrees
Departure Weather LGAV 151250Z 05022KT 9999 FEW025 30/15 Q1014 NOSIG
Departure Coordinates 37.9384451156712/ 23.9574822351529
Takeoff Weight=59671KG Fuel Weight=4828KG
16:27 Paused
16:27 TOC Reached
16:27 Landing Gear Up @ 140 Knots and 400 Feet
16:27 Unpaused
16:27 Taxi Lights OFF at 560 Feet
16:28 You exceeded maximum bank angle
16:28 Flaps 2 Selected at 1410ft and 146kts
16:28 Flaps 0 Selected at 1640ft and 184kts
16:31 Above FL100 you need to switch of the landing lights
16:31 Landing Lights OFF at 10290 AGL
16:59 Landing Lights ON at 9790 AGL
16:59 Below 10000 feet you are not allowed to go over 250 knots
17:04 Flaps 1 Selected at 3510ft and 196kts
17:06 Flaps 3 Selected at 1960ft and 187kts
17:07 Landing Gear Down @ 182 Knots and 1900 Feet
17:07 Flaps 4 Selected at 1820ft and 165kts
17:07 Taxi Lights ON at 1810 Feet
17:07 Flaps 5 Selected at 1800ft and 157kts
17:09 You Landed @ 131 Knots with -178 Vertical Speed With a heading of 73 and with 1.2048 G Force
Arrival Weather: LGAL 151350Z 25011KT 9999 FEW030 28/20 Q1013
Arrival Coordinates 40.8547275399757/ 25.9484816538486
Landing Weight=57940KG Fuel Weight=3096KG
17:09 Paused
17:09 Taxiing to gate
17:10 Landing Lights OFF at 40 AGL
17:10 Strobe Lights OFF at 40 Feet
17:10 Flaps 0 Selected at 40ft and 30kts
17:11 Unpaused
17:11 Brakes are On
17:11 Engine 2 Stopped
17:11 Engine 1 Stopped
17:12 Brakes are Released
17:12 Taxi Lights OFF at 40 Feet
Pirep logged with OA Virtual Tracking 1.0.2.3

Route Map